createdAt,value
2023-05-10T00:02:46.486Z,43.47
2023-05-10T00:07:54.077Z,43.41
2023-05-10T00:13:01.551Z,43.52
2023-05-10T00:18:09.187Z,43.44
2023-05-10T00:23:17.043Z,43.61
2023-05-10T00:28:24.434Z,43.85
2023-05-10T00:33:32.006Z,44.14
2023-05-10T00:38:39.391Z,44.31
2023-05-10T00:43:46.743Z,44.36
2023-05-10T00:48:54.690Z,44.39
2023-05-10T00:54:02.707Z,44.50
2023-05-10T00:59:10.863Z,44.47
2023-05-10T01:04:18.870Z,44.40
2023-05-10T01:09:27.644Z,44.11
2023-05-10T01:14:35.800Z,44.27
2023-05-10T01:19:44.019Z,44.36
2023-05-10T01:25:35.581Z,44.65
2023-05-10T01:31:10.469Z,45.08
2023-05-10T01:36:28.300Z,45.40
2023-05-10T01:41:43.562Z,45.41
2023-05-10T01:46:56.511Z,45.44
2023-05-10T01:52:11.473Z,45.88
2023-05-10T01:57:19.502Z,46.15
2023-05-10T02:02:28.864Z,46.37
2023-05-10T02:07:38.384Z,46.53
2023-05-10T02:12:49.210Z,46.70
2023-05-10T02:17:58.260Z,46.52
2023-05-10T02:23:06.770Z,46.67
2023-05-10T02:28:17.254Z,46.69
2023-05-10T02:33:25.534Z,46.67
2023-05-10T02:38:35.218Z,46.97
2023-05-10T02:43:44.827Z,47.11
2023-05-10T02:48:52.186Z,47.43
2023-05-10T02:54:00.537Z,47.86
2023-05-10T02:59:07.908Z,47.84
2023-05-10T03:04:15.372Z,48.12
2023-05-10T03:09:23.283Z,48.43
2023-05-10T03:14:46.459Z,48.64
2023-05-10T03:19:58.469Z,48.95
2023-05-10T03:25:11.188Z,48.37
2023-05-10T03:30:21.240Z,48.48
2023-05-10T03:35:29.007Z,48.48
2023-05-10T03:40:36.732Z,48.15
2023-05-10T03:45:44.343Z,47.98
2023-05-10T03:50:51.966Z,47.97
2023-05-10T03:55:59.468Z,47.80
2023-05-10T04:01:06.949Z,48.02
2023-05-10T04:06:14.270Z,47.90
2023-05-10T04:11:23.353Z,47.82
2023-05-10T04:16:31.111Z,47.61
2023-05-10T04:21:39.041Z,47.67
2023-05-10T04:26:47.103Z,47.37
2023-05-10T04:31:54.881Z,47.47
2023-05-10T04:37:02.214Z,47.11
2023-05-10T04:42:09.907Z,47.02
2023-05-10T04:47:17.703Z,46.70
2023-05-10T04:52:25.390Z,46.72
2023-05-10T04:57:33.058Z,46.76
2023-05-10T05:02:40.379Z,46.59
2023-05-10T05:07:48.240Z,46.18
2023-05-10T05:12:55.572Z,46.02
2023-05-10T05:18:03.256Z,45.53
2023-05-10T05:23:10.871Z,45.10
2023-05-10T05:28:18.441Z,44.51
2023-05-10T05:33:25.896Z,44.13
2023-05-10T05:38:33.340Z,43.65
2023-05-10T05:43:40.905Z,43.27
2023-05-10T05:48:48.104Z,42.61
2023-05-10T05:53:55.662Z,42.30
2023-05-10T05:59:03.378Z,41.71
2023-05-10T06:04:11.080Z,41.15
2023-05-10T06:09:18.539Z,40.46
2023-05-10T06:14:26.833Z,39.80
2023-05-10T06:19:34.446Z,39.39
2023-05-10T06:24:42.014Z,38.77
2023-05-10T06:29:52.256Z,38.77
2023-05-10T06:35:04.022Z,38.57
2023-05-10T06:40:13.329Z,38.53
2023-05-10T06:45:21.504Z,38.19
2023-05-10T06:50:29.547Z,37.26
2023-05-10T06:55:37.336Z,36.55
2023-05-10T07:00:46.697Z,36.10
2023-05-10T07:05:54.391Z,35.19
2023-05-10T07:11:08.581Z,34.32
2023-05-10T07:16:16.189Z,33.44
2023-05-10T07:21:25.345Z,33.07
2023-05-10T07:26:33.299Z,32.56
2023-05-10T07:31:43.345Z,32.72
2023-05-10T07:36:50.936Z,32.44
2023-05-10T07:41:58.423Z,31.89
2023-05-10T07:47:06.094Z,31.51
2023-05-10T07:52:13.361Z,31.68
2023-05-10T07:57:21.076Z,31.27
2023-05-10T08:03:15.310Z,30.64
2023-05-10T08:08:24.256Z,30.32
2023-05-10T08:13:32.814Z,30.55
2023-05-10T08:18:40.765Z,30.19
2023-05-10T08:23:48.190Z,29.71
2023-05-10T08:28:55.619Z,29.94
2023-05-10T08:34:03.307Z,30.00
2023-05-10T08:39:23.086Z,29.82
2023-05-10T08:44:37.278Z,29.31
2023-05-10T08:49:46.400Z,29.64
2023-05-10T08:54:54.077Z,29.33
2023-05-10T09:00:04.080Z,29.45
2023-05-10T09:05:13.347Z,29.35
2023-05-10T09:10:21.571Z,28.89
2023-05-10T09:15:29.136Z,28.68
2023-05-10T09:20:36.838Z,28.63
2023-05-10T09:25:45.956Z,28.31
2023-05-10T09:30:58.459Z,28.74
2023-05-10T09:36:13.912Z,28.55
2023-05-10T09:41:26.536Z,28.65
2023-05-10T09:46:38.378Z,28.64
2023-05-10T09:51:46.364Z,28.33
2023-05-10T09:56:53.983Z,28.43
2023-05-10T10:02:03.124Z,27.83
2023-05-10T10:07:11.366Z,27.84
2023-05-10T10:12:19.099Z,27.39
2023-05-10T10:17:27.538Z,27.24
2023-05-10T10:22:35.136Z,27.17
2023-05-10T10:27:51.228Z,27.20
2023-05-10T10:39:00.858Z,27.11
2023-05-10T10:44:30.726Z,27.02
2023-05-10T10:49:45.552Z,26.85
2023-05-10T10:55:04.499Z,27.10
2023-05-10T11:00:30.164Z,26.87
2023-05-10T11:05:46.355Z,26.84
2023-05-10T11:11:09.616Z,26.66
2023-05-10T11:16:22.396Z,26.67
2023-05-10T11:21:30.328Z,26.80
2023-05-10T11:26:42.436Z,26.34
2023-05-10T11:31:51.190Z,26.03
2023-05-10T11:37:00.304Z,26.17
2023-05-10T11:42:10.677Z,25.94
2023-05-10T11:47:18.427Z,25.82
2023-05-10T11:52:27.465Z,26.13
2023-05-10T11:57:35.441Z,25.95
2023-05-10T12:02:43.630Z,25.59
2023-05-10T12:07:51.725Z,25.60
2023-05-10T12:13:01.341Z,25.80
2023-05-10T12:18:09.784Z,25.47
2023-05-10T12:23:18.262Z,25.31
2023-05-10T12:28:26.335Z,25.29
2023-05-10T12:33:44.347Z,25.63
2023-05-10T12:38:53.279Z,25.69
2023-05-10T12:44:01.002Z,25.43
2023-05-10T12:49:09.862Z,25.66
2023-05-10T12:54:17.610Z,25.29
2023-05-10T12:59:25.399Z,25.37
2023-05-10T13:04:33.102Z,25.10
2023-05-10T13:09:40.624Z,25.29
2023-05-10T13:14:48.748Z,25.17
2023-05-10T13:19:56.440Z,25.23
2023-05-10T13:25:04.121Z,25.22
2023-05-10T13:30:14.187Z,25.13
2023-05-10T13:35:22.057Z,25.26
2023-05-10T13:40:29.768Z,25.17
2023-05-10T13:45:37.491Z,25.25
2023-05-10T13:50:45.852Z,25.07
2023-05-10T13:55:53.909Z,24.60
2023-05-10T14:01:02.072Z,25.01
2023-05-10T14:06:11.142Z,25.28
2023-05-10T14:11:19.141Z,25.05
2023-05-10T14:16:27.759Z,25.13
2023-05-10T14:21:35.995Z,24.98
2023-05-10T14:26:44.438Z,24.94
2023-05-10T14:31:52.696Z,24.84
2023-05-10T14:37:02.309Z,24.62
2023-05-10T14:42:10.352Z,24.65
2023-05-10T14:47:18.564Z,24.55
2023-05-10T14:52:26.368Z,24.66
2023-05-10T14:57:34.712Z,24.70
2023-05-10T15:02:43.117Z,24.88
2023-05-10T15:07:51.658Z,24.66
2023-05-10T15:12:59.705Z,24.82
2023-05-10T15:18:08.014Z,24.99
2023-05-10T15:23:16.605Z,25.01
2023-05-10T15:28:24.432Z,24.99
2023-05-10T15:33:32.288Z,24.83
2023-05-10T15:38:39.948Z,24.58
2023-05-10T15:43:47.835Z,24.68
2023-05-10T15:48:55.681Z,24.75
2023-05-10T15:54:07.810Z,24.61
2023-05-10T15:59:16.037Z,24.80
2023-05-10T16:04:24.782Z,24.50
2023-05-10T16:09:32.559Z,24.82
2023-05-10T16:14:40.457Z,24.68
2023-05-10T16:19:49.211Z,24.69
2023-05-10T16:24:57.032Z,24.78
2023-05-10T16:30:07.400Z,24.87
2023-05-10T16:35:16.000Z,25.03
2023-05-10T16:40:25.251Z,25.32
2023-05-10T16:45:35.178Z,25.32
2023-05-10T16:50:45.097Z,25.22
2023-05-10T16:55:54.327Z,25.08
2023-05-10T17:01:02.519Z,25.20
2023-05-10T17:06:12.166Z,25.14
2023-05-10T17:11:22.285Z,25.02
2023-05-10T17:16:31.361Z,25.18
2023-05-10T17:21:39.688Z,25.09
2023-05-10T17:26:47.165Z,25.26
2023-05-10T17:31:54.690Z,25.42
2023-05-10T17:37:02.781Z,25.51
2023-05-10T17:42:11.206Z,25.65
2023-05-10T17:47:19.347Z,25.66
2023-05-10T17:52:27.872Z,25.96
2023-05-10T17:57:35.158Z,25.96
2023-05-10T18:02:43.172Z,26.27
2023-05-10T18:07:50.945Z,26.28
2023-05-10T18:12:59.151Z,26.40
2023-05-10T18:18:07.885Z,26.74
2023-05-10T18:23:16.142Z,26.77
2023-05-10T18:28:27.977Z,27.02
2023-05-10T18:33:35.889Z,27.08
2023-05-10T18:38:43.947Z,27.33
2023-05-10T18:43:52.646Z,27.50
2023-05-10T18:49:04.229Z,27.36
2023-05-10T18:54:11.981Z,27.66
2023-05-10T18:59:20.242Z,27.96
2023-05-10T19:04:27.603Z,27.97
2023-05-10T19:09:35.728Z,28.08
2023-05-10T19:14:43.736Z,28.37
2023-05-10T19:19:51.456Z,28.69
2023-05-10T19:24:59.378Z,29.09
2023-05-10T19:30:08.250Z,29.20
2023-05-10T19:35:16.139Z,29.16
2023-05-10T19:40:23.784Z,29.43
2023-05-10T19:45:31.317Z,29.74
2023-05-10T19:50:39.159Z,30.00
2023-05-10T19:55:46.676Z,30.41
2023-05-10T20:00:55.363Z,30.28
2023-05-10T20:06:03.614Z,30.24
2023-05-10T20:11:11.224Z,30.91
2023-05-10T20:16:19.105Z,31.03
2023-05-10T20:21:27.082Z,31.20
2023-05-10T20:26:35.023Z,31.32
2023-05-10T20:31:42.707Z,31.81
2023-05-10T20:36:50.354Z,31.74
2023-05-10T20:41:57.808Z,32.22
2023-05-10T20:47:06.072Z,32.34
2023-05-10T20:52:13.638Z,32.86
2023-05-10T20:57:21.708Z,33.12
2023-05-10T21:02:29.924Z,33.51
2023-05-10T21:07:37.744Z,33.64
2023-05-10T21:12:45.295Z,34.23
2023-05-10T21:17:54.296Z,34.37
2023-05-10T21:23:01.978Z,34.62
2023-05-10T21:28:10.091Z,35.20
2023-05-10T21:33:17.822Z,35.37
2023-05-10T21:38:25.551Z,35.49
2023-05-10T21:43:33.194Z,35.75
2023-05-10T21:48:40.974Z,35.99
2023-05-10T21:53:48.398Z,36.56
2023-05-10T21:58:56.105Z,36.83
2023-05-10T22:04:03.587Z,36.91
2023-05-10T22:09:11.604Z,37.25
2023-05-10T22:14:19.921Z,37.25
2023-05-10T22:19:27.939Z,37.70
2023-05-10T22:24:36.174Z,37.95
2023-05-10T22:29:43.796Z,38.02
2023-05-10T22:34:51.174Z,38.26
2023-05-10T22:39:58.584Z,38.57
2023-05-10T22:45:06.748Z,38.68
2023-05-10T22:50:16.401Z,38.83
2023-05-10T22:55:24.409Z,38.94
2023-05-10T23:00:31.783Z,38.96
2023-05-10T23:05:39.429Z,39.20
2023-05-10T23:10:47.439Z,39.55
2023-05-10T23:15:55.263Z,39.81
2023-05-10T23:21:03.123Z,40.34
2023-05-10T23:26:10.707Z,40.41
2023-05-10T23:31:18.767Z,40.80
2023-05-10T23:36:26.401Z,41.28
2023-05-10T23:41:33.876Z,41.71
2023-05-10T23:46:41.599Z,41.63
2023-05-10T23:51:48.976Z,41.81
2023-05-10T23:56:56.371Z,41.75
